Terminal Aerodrome Forecast
Issued by NWS

Home | Current Version | Previous Version | Text Only | Print | Product List | Glossary On
Versions: 1 2 3 4 5 6 7 8 9 10 11 12 13 14
532
FTUS42 TJSJ 221120
TAFISX
TAF
TISX 221120Z 2212/2312 05005KT P6SM FEW029 SCT040 BKN045
     FM221300 36010KT P6SM FEW030 SCT060
     FM222200 06007KT P6SM FEW030=

USA.gov is the U.S. government's official web portal to all federal, state and local government web resources and services.